sensor_id;sensor_type;location;lat;lon;timestamp;pressure;altitude;pressure_sealevel;temperature;humidity
73455;BME280;61690;51.824;6.306;2022-08-21T00:01:42;101615.97;;;20.35;54.98
73455;BME280;61690;51.824;6.306;2022-08-21T00:04:09;101616.44;;;20.27;55.17
73455;BME280;61690;51.824;6.306;2022-08-21T00:06:36;101615.84;;;20.22;55.35
73455;BME280;61690;51.824;6.306;2022-08-21T00:09:05;101616.91;;;20.20;54.66
73455;BME280;61690;51.824;6.306;2022-08-21T00:11:30;101616.91;;;20.20;55.01
73455;BME280;61690;51.824;6.306;2022-08-21T00:13:56;101620.28;;;20.22;54.98
73455;BME280;61690;51.824;6.306;2022-08-21T00:16:24;101617.00;;;20.18;54.74
73455;BME280;61690;51.824;6.306;2022-08-21T00:18:50;101621.50;;;20.16;54.65
73455;BME280;61690;51.824;6.306;2022-08-21T00:21:16;101621.44;;;20.17;54.50
73455;BME280;61690;51.824;6.306;2022-08-21T00:23:42;101620.00;;;20.12;54.81
73455;BME280;61690;51.824;6.306;2022-08-21T00:26:07;101618.28;;;20.11;54.85
73455;BME280;61690;51.824;6.306;2022-08-21T00:28:33;101613.38;;;20.05;54.61
73455;BME280;61690;51.824;6.306;2022-08-21T00:30:59;101616.63;;;20.10;54.54
73455;BME280;61690;51.824;6.306;2022-08-21T00:33:26;101611.59;;;20.05;54.72
73455;BME280;61690;51.824;6.306;2022-08-21T00:35:52;101612.56;;;20.04;54.58
73455;BME280;61690;51.824;6.306;2022-08-21T00:38:18;101613.94;;;19.95;54.74
73455;BME280;61690;51.824;6.306;2022-08-21T00:40:50;101603.13;;;20.00;54.32
73455;BME280;61690;51.824;6.306;2022-08-21T00:43:20;101598.09;;;19.95;54.58
73455;BME280;61690;51.824;6.306;2022-08-21T00:45:46;101597.41;;;19.92;54.31
73455;BME280;61690;51.824;6.306;2022-08-21T00:48:12;101599.31;;;19.90;54.36
73455;BME280;61690;51.824;6.306;2022-08-21T00:50:41;101594.69;;;19.93;54.43
73455;BME280;61690;51.824;6.306;2022-08-21T00:53:07;101601.94;;;19.90;54.77
73455;BME280;61690;51.824;6.306;2022-08-21T00:55:35;101598.63;;;19.86;54.74
73455;BME280;61690;51.824;6.306;2022-08-21T00:58:03;101598.63;;;19.86;54.78
73455;BME280;61690;51.824;6.306;2022-08-21T01:00:32;101605.81;;;19.84;54.82
73455;BME280;61690;51.824;6.306;2022-08-21T01:03:01;101599.84;;;19.81;54.97
73455;BME280;61690;51.824;6.306;2022-08-21T01:05:27;101604.13;;;19.83;54.79
73455;BME280;61690;51.824;6.306;2022-08-21T01:07:54;101609.03;;;19.89;54.97
73455;BME280;61690;51.824;6.306;2022-08-21T01:10:22;101600.16;;;19.90;54.63
73455;BME280;61690;51.824;6.306;2022-08-21T01:12:48;101595.91;;;19.88;54.58
73455;BME280;61690;51.824;6.306;2022-08-21T01:15:16;101601.38;;;19.85;54.78
73455;BME280;61690;51.824;6.306;2022-08-21T01:17:42;101604.28;;;19.80;54.55
73455;BME280;61690;51.824;6.306;2022-08-21T01:20:09;101611.16;;;19.83;54.90
73455;BME280;61690;51.824;6.306;2022-08-21T01:22:35;101601.56;;;19.82;54.42
73455;BME280;61690;51.824;6.306;2022-08-21T01:25:02;101607.88;;;19.79;54.88
73455;BME280;61690;51.824;6.306;2022-08-21T01:27:28;101609.84;;;19.75;55.03
73455;BME280;61690;51.824;6.306;2022-08-21T01:30:04;101615.22;;;19.74;54.79
73455;BME280;61690;51.824;6.306;2022-08-21T01:32:29;101607.53;;;19.69;55.11
73455;BME280;61690;51.824;6.306;2022-08-21T01:34:55;101609.97;;;19.58;55.07
73455;BME280;61690;51.824;6.306;2022-08-21T01:37:21;101612.84;;;19.53;55.24
73455;BME280;61690;51.824;6.306;2022-08-21T01:39:47;101607.50;;;19.55;54.98
73455;BME280;61690;51.824;6.306;2022-08-21T01:42:13;101598.53;;;19.57;54.99
73455;BME280;61690;51.824;6.306;2022-08-21T01:44:39;101604.19;;;19.51;55.44
73455;BME280;61690;51.824;6.306;2022-08-21T01:47:07;101602.97;;;19.57;55.12
73455;BME280;61690;51.824;6.306;2022-08-21T01:49:33;101603.47;;;19.64;55.20
73455;BME280;61690;51.824;6.306;2022-08-21T01:51:59;101601.75;;;19.63;54.99
73455;BME280;61690;51.824;6.306;2022-08-21T01:54:25;101603.47;;;19.64;54.92
73455;BME280;61690;51.824;6.306;2022-08-21T01:56:52;101599.13;;;19.63;55.17
73455;BME280;61690;51.824;6.306;2022-08-21T01:59:19;101600.72;;;19.65;55.14
73455;BME280;61690;51.824;6.306;2022-08-21T02:01:45;101594.78;;;19.62;55.11
73455;BME280;61690;51.824;6.306;2022-08-21T02:04:10;101595.72;;;19.61;54.83
73455;BME280;61690;51.824;6.306;2022-08-21T02:06:36;101594.59;;;19.65;54.97
73455;BME280;61690;51.824;6.306;2022-08-21T02:09:04;101598.19;;;19.64;54.64
73455;BME280;61690;51.824;6.306;2022-08-21T02:11:30;101610.81;;;19.58;55.04
73455;BME280;61690;51.824;6.306;2022-08-21T02:13:56;101601.38;;;19.54;55.05
73455;BME280;61690;51.824;6.306;2022-08-21T02:16:21;101599.56;;;19.55;54.89
73455;BME280;61690;51.824;6.306;2022-08-21T02:18:47;101602.28;;;19.53;54.96
73455;BME280;61690;51.824;6.306;2022-08-21T02:21:12;101600.63;;;19.52;55.10
73455;BME280;61690;51.824;6.306;2022-08-21T02:23:37;101597.22;;;19.50;55.00
73455;BME280;61690;51.824;6.306;2022-08-21T02:26:05;101587.00;;;19.44;55.02
73455;BME280;61690;51.824;6.306;2022-08-21T02:28:32;101592.28;;;19.44;55.01
73455;BME280;61690;51.824;6.306;2022-08-21T02:30:58;101589.84;;;19.41;55.14
73455;BME280;61690;51.824;6.306;2022-08-21T02:33:24;101585.69;;;19.37;55.19
73455;BME280;61690;51.824;6.306;2022-08-21T02:35:49;101584.81;;;19.36;55.33
73455;BME280;61690;51.824;6.306;2022-08-21T02:38:22;101581.50;;;19.33;55.01
73455;BME280;61690;51.824;6.306;2022-08-21T02:40:50;101584.31;;;19.30;54.99
73455;BME280;61690;51.824;6.306;2022-08-21T02:43:16;101583.13;;;19.35;55.34
73455;BME280;61690;51.824;6.306;2022-08-21T02:45:43;101580.09;;;19.27;55.25
73455;BME280;61690;51.824;6.306;2022-08-21T02:48:13;101582.03;;;19.24;54.95
73455;BME280;61690;51.824;6.306;2022-08-21T02:50:42;101583.81;;;19.23;55.20
73455;BME280;61690;51.824;6.306;2022-08-21T02:53:11;101580.34;;;19.23;54.79
73455;BME280;61690;51.824;6.306;2022-08-21T02:55:37;101579.56;;;19.20;54.93
73455;BME280;61690;51.824;6.306;2022-08-21T02:58:05;101584.84;;;19.20;55.13
73455;BME280;61690;51.824;6.306;2022-08-21T03:00:32;101584.75;;;19.22;55.23
73455;BME280;61690;51.824;6.306;2022-08-21T03:02:59;101578.88;;;19.17;54.92
73455;BME280;61690;51.824;6.306;2022-08-21T03:05:27;101577.09;;;19.17;54.76
73455;BME280;61690;51.824;6.306;2022-08-21T03:07:53;101570.31;;;19.13;55.28
73455;BME280;61690;51.824;6.306;2022-08-21T03:10:20;101566.53;;;19.17;54.97
73455;BME280;61690;51.824;6.306;2022-08-21T03:12:47;101573.53;;;19.18;54.78
73455;BME280;61690;51.824;6.306;2022-08-21T03:15:15;101566.91;;;19.11;54.61
73455;BME280;61690;51.824;6.306;2022-08-21T03:17:42;101563.50;;;19.09;54.68
73455;BME280;61690;51.824;6.306;2022-08-21T03:20:09;101563.50;;;19.09;55.22
73455;BME280;61690;51.824;6.306;2022-08-21T03:22:34;101561.72;;;19.10;55.38
73455;BME280;61690;51.824;6.306;2022-08-21T03:25:01;101554.16;;;19.04;54.80
73455;BME280;61690;51.824;6.306;2022-08-21T03:27:27;101557.47;;;19.07;54.83
73455;BME280;61690;51.824;6.306;2022-08-21T03:29:53;101560.19;;;19.06;55.02
73455;BME280;61690;51.824;6.306;2022-08-21T03:32:19;101561.22;;;19.03;54.79
73455;BME280;61690;51.824;6.306;2022-08-21T03:34:45;101568.19;;;19.04;54.50
73455;BME280;61690;51.824;6.306;2022-08-21T03:37:12;101557.81;;;19.01;54.31
73455;BME280;61690;51.824;6.306;2022-08-21T03:39:39;101564.91;;;19.00;54.51
73455;BME280;61690;51.824;6.306;2022-08-21T03:42:04;101566.25;;;18.92;54.44
73455;BME280;61690;51.824;6.306;2022-08-21T03:44:31;101571.69;;;18.89;54.61
73455;BME280;61690;51.824;6.306;2022-08-21T03:46:57;101575.44;;;18.85;54.63
73455;BME280;61690;51.824;6.306;2022-08-21T03:49:23;101569.41;;;18.83;54.69
73455;BME280;61690;51.824;6.306;2022-08-21T03:51:49;101565.00;;;18.83;55.16
73455;BME280;61690;51.824;6.306;2022-08-21T03:54:15;101571.94;;;18.84;54.80
73455;BME280;61690;51.824;6.306;2022-08-21T03:56:40;101580.47;;;18.89;55.13
73455;BME280;61690;51.824;6.306;2022-08-21T03:59:05;101576.59;;;18.79;55.00
73455;BME280;61690;51.824;6.306;2022-08-21T04:01:31;101573.81;;;18.82;55.05
73455;BME280;61690;51.824;6.306;2022-08-21T04:03:57;101566.03;;;18.79;54.99
73455;BME280;61690;51.824;6.306;2022-08-21T04:06:23;101569.22;;;18.86;55.20
73455;BME280;61690;51.824;6.306;2022-08-21T04:08:48;101576.03;;;18.90;54.82
73455;BME280;61690;51.824;6.306;2022-08-21T04:11:14;101575.44;;;18.85;55.00
73455;BME280;61690;51.824;6.306;2022-08-21T04:13:40;101569.88;;;18.73;54.97
73455;BME280;61690;51.824;6.306;2022-08-21T04:16:06;101569.47;;;18.81;54.82
73455;BME280;61690;51.824;6.306;2022-08-21T04:18:32;101577.31;;;18.83;54.81
73455;BME280;61690;51.824;6.306;2022-08-21T04:20:58;101567.72;;;18.82;54.84
73455;BME280;61690;51.824;6.306;2022-08-21T04:23:24;101571.59;;;18.74;54.85
73455;BME280;61690;51.824;6.306;2022-08-21T04:25:55;101570.97;;;18.69;55.39
73455;BME280;61690;51.824;6.306;2022-08-21T04:28:22;101568.59;;;18.65;55.51
73455;BME280;61690;51.824;6.306;2022-08-21T04:30:47;101571.94;;;18.68;55.41
73455;BME280;61690;51.824;6.306;2022-08-21T04:33:13;101570.75;;;18.74;55.21
73455;BME280;61690;51.824;6.306;2022-08-21T04:35:38;101574.38;;;18.71;55.30
73455;BME280;61690;51.824;6.306;2022-08-21T04:38:04;101580.59;;;18.70;55.31
73455;BME280;61690;51.824;6.306;2022-08-21T04:40:29;101575.31;;;18.70;55.09
73455;BME280;61690;51.824;6.306;2022-08-21T04:43:06;101575.31;;;18.70;55.56
73455;BME280;61690;51.824;6.306;2022-08-21T04:45:37;101570.81;;;18.72;55.13
73455;BME280;61690;51.824;6.306;2022-08-21T04:48:05;101576.44;;;18.66;55.85
73455;BME280;61690;51.824;6.306;2022-08-21T04:50:43;101566.72;;;18.67;55.99
73455;BME280;61690;51.824;6.306;2022-08-21T04:53:18;101570.56;;;18.61;55.96
73455;BME280;61690;51.824;6.306;2022-08-21T04:55:46;101567.22;;;18.57;56.27
73455;BME280;61690;51.824;6.306;2022-08-21T04:58:15;101569.78;;;18.59;56.06
73455;BME280;61690;51.824;6.306;2022-08-21T05:00:42;101570.38;;;18.48;56.59
73455;BME280;61690;51.824;6.306;2022-08-21T05:03:09;101565.97;;;18.49;56.50
73455;BME280;61690;51.824;6.306;2022-08-21T05:05:36;101564.78;;;18.54;55.96
73455;BME280;61690;51.824;6.306;2022-08-21T05:08:02;101558.91;;;18.65;55.69
73455;BME280;61690;51.824;6.306;2022-08-21T05:10:28;101574.09;;;18.60;55.86
73455;BME280;61690;51.824;6.306;2022-08-21T05:12:54;101567.75;;;18.64;55.59
73455;BME280;61690;51.824;6.306;2022-08-21T05:15:20;101571.94;;;18.68;56.01
73455;BME280;61690;51.824;6.306;2022-08-21T05:17:45;101570.41;;;18.64;55.77
73455;BME280;61690;51.824;6.306;2022-08-21T05:20:12;101567.75;;;18.64;56.44
73455;BME280;61690;51.824;6.306;2022-08-21T05:22:38;101561.38;;;18.68;55.98
73455;BME280;61690;51.824;6.306;2022-08-21T05:25:05;101558.00;;;18.66;56.10
73455;BME280;61690;51.824;6.306;2022-08-21T05:27:31;101558.66;;;18.70;55.86
73455;BME280;61690;51.824;6.306;2022-08-21T05:29:57;101552.53;;;18.69;56.24
73455;BME280;61690;51.824;6.306;2022-08-21T05:32:23;101560.09;;;18.75;56.08
73455;BME280;61690;51.824;6.306;2022-08-21T05:34:49;101559.16;;;18.76;56.33
73455;BME280;61690;51.824;6.306;2022-08-21T05:37:15;101564.81;;;18.86;56.13
73455;BME280;61690;51.824;6.306;2022-08-21T05:39:40;101563.41;;;18.79;56.35
73455;BME280;61690;51.824;6.306;2022-08-21T05:42:06;101561.41;;;18.84;56.57
73455;BME280;61690;51.824;6.306;2022-08-21T05:44:32;101563.19;;;18.84;57.47
73455;BME280;61690;51.824;6.306;2022-08-21T05:47:08;101565.38;;;19.07;56.97
73455;BME280;61690;51.824;6.306;2022-08-21T05:49:34;101561.38;;;19.16;56.89
73455;BME280;61690;51.824;6.306;2022-08-21T05:52:00;101566.31;;;19.22;56.95
73455;BME280;61690;51.824;6.306;2022-08-21T05:54:26;101572.06;;;19.29;57.40
73455;BME280;61690;51.824;6.306;2022-08-21T05:56:52;101573.56;;;19.49;56.79
73455;BME280;61690;51.824;6.306;2022-08-21T05:59:18;101583.25;;;19.48;58.58
73455;BME280;61690;51.824;6.306;2022-08-21T06:01:44;101585.69;;;19.37;58.90
73455;BME280;61690;51.824;6.306;2022-08-21T06:04:11;101580.03;;;19.43;58.74
73455;BME280;61690;51.824;6.306;2022-08-21T06:06:36;101576.88;;;19.36;58.76
73455;BME280;61690;51.824;6.306;2022-08-21T06:09:02;101585.09;;;19.32;58.88
73455;BME280;61690;51.824;6.306;2022-08-21T06:11:28;101588.31;;;19.21;59.00
73455;BME280;61690;51.824;6.306;2022-08-21T06:13:53;101593.72;;;19.19;59.10
73455;BME280;61690;51.824;6.306;2022-08-21T06:16:19;101583.00;;;19.07;59.56
73455;BME280;61690;51.824;6.306;2022-08-21T06:18:45;101597.47;;;18.99;59.71
73455;BME280;61690;51.824;6.306;2022-08-21T06:21:11;101597.19;;;18.88;60.12
73455;BME280;61690;51.824;6.306;2022-08-21T06:23:37;101601.34;;;18.76;60.38
73455;BME280;61690;51.824;6.306;2022-08-21T06:26:04;101598.84;;;18.91;60.20
73455;BME280;61690;51.824;6.306;2022-08-21T06:28:31;101600.41;;;18.77;60.73
73455;BME280;61690;51.824;6.306;2022-08-21T06:30:56;101592.44;;;18.95;60.18
73455;BME280;61690;51.824;6.306;2022-08-21T06:33:22;101598.13;;;19.19;59.11
73455;BME280;61690;51.824;6.306;2022-08-21T06:35:48;101593.72;;;19.19;59.30
73455;BME280;61690;51.824;6.306;2022-08-21T06:38:14;101592.47;;;19.25;59.01
73455;BME280;61690;51.824;6.306;2022-08-21T06:40:39;101599.13;;;19.32;58.65
73455;BME280;61690;51.824;6.306;2022-08-21T06:43:10;101601.44;;;19.23;59.07
73455;BME280;61690;51.824;6.306;2022-08-21T06:45:36;101601.84;;;19.31;58.97
73455;BME280;61690;51.824;6.306;2022-08-21T06:48:02;101596.13;;;19.38;58.97
73455;BME280;61690;51.824;6.306;2022-08-21T06:50:29;101594.00;;;19.45;58.57
73455;BME280;61690;51.824;6.306;2022-08-21T06:53:06;101599.44;;;19.42;58.64
73455;BME280;61690;51.824;6.306;2022-08-21T06:55:32;101592.63;;;19.38;59.09
73455;BME280;61690;51.824;6.306;2022-08-21T06:57:58;101595.56;;;19.33;59.22
73455;BME280;61690;51.824;6.306;2022-08-21T07:00:24;101595.91;;;19.27;59.61
73455;BME280;61690;51.824;6.306;2022-08-21T07:02:49;101600.31;;;19.43;59.25
73455;BME280;61690;51.824;6.306;2022-08-21T07:05:15;101605.53;;;19.58;58.52
73455;BME280;61690;51.824;6.306;2022-08-21T07:07:40;101600.16;;;19.60;58.74
73455;BME280;61690;51.824;6.306;2022-08-21T07:10:06;101603.72;;;19.59;58.64
73455;BME280;61690;51.824;6.306;2022-08-21T07:12:31;101609.84;;;19.59;58.59
73455;BME280;61690;51.824;6.306;2022-08-21T07:14:56;101603.66;;;19.61;58.45
73455;BME280;61690;51.824;6.306;2022-08-21T07:17:22;101602.16;;;19.71;58.21
73455;BME280;61690;51.824;6.306;2022-08-21T07:19:47;101612.97;;;19.82;57.90
73455;BME280;61690;51.824;6.306;2022-08-21T07:22:14;101615.06;;;19.91;57.97
73455;BME280;61690;51.824;6.306;2022-08-21T07:24:43;101616.31;;;20.00;57.98
73455;BME280;61690;51.824;6.306;2022-08-21T07:27:08;101608.47;;;19.98;57.40
73455;BME280;61690;51.824;6.306;2022-08-21T07:29:33;101601.88;;;20.06;57.43
73455;BME280;61690;51.824;6.306;2022-08-21T07:31:59;101599.44;;;20.03;57.17
73455;BME280;61690;51.824;6.306;2022-08-21T07:34:24;101593.41;;;20.01;57.55
73455;BME280;61690;51.824;6.306;2022-08-21T07:36:49;101595.75;;;20.05;57.19
73455;BME280;61690;51.824;6.306;2022-08-21T07:39:14;101593.19;;;20.04;57.55
73455;BME280;61690;51.824;6.306;2022-08-21T07:41:40;101589.53;;;20.06;57.23
73455;BME280;61690;51.824;6.306;2022-08-21T07:44:05;101590.28;;;20.08;56.99
73455;BME280;61690;51.824;6.306;2022-08-21T07:46:30;101589.25;;;20.11;57.00
73455;BME280;61690;51.824;6.306;2022-08-21T07:48:56;101592.56;;;20.14;57.13
73455;BME280;61690;51.824;6.306;2022-08-21T07:51:25;101586.13;;;20.18;56.62
73455;BME280;61690;51.824;6.306;2022-08-21T07:53:54;101585.00;;;20.23;56.82
73455;BME280;61690;51.824;6.306;2022-08-21T07:56:20;101581.69;;;20.19;56.88
73455;BME280;61690;51.824;6.306;2022-08-21T07:58:45;101583.31;;;20.22;56.78
73455;BME280;61690;51.824;6.306;2022-08-21T08:01:11;101581.34;;;20.25;56.63
73455;BME280;61690;51.824;6.306;2022-08-21T08:03:37;101585.41;;;20.31;56.96
73455;BME280;61690;51.824;6.306;2022-08-21T08:06:04;101580.19;;;20.29;56.51
73455;BME280;61690;51.824;6.306;2022-08-21T08:08:30;101579.53;;;20.26;56.91
73455;BME280;61690;51.824;6.306;2022-08-21T08:10:57;101586.50;;;20.27;56.76
73455;BME280;61690;51.824;6.306;2022-08-21T08:13:23;101585.41;;;20.31;57.05
73455;BME280;61690;51.824;6.306;2022-08-21T08:15:49;101579.41;;;20.42;57.12
73455;BME280;61690;51.824;6.306;2022-08-21T08:18:14;101587.91;;;20.47;57.04
73455;BME280;61690;51.824;6.306;2022-08-21T08:20:40;101588.75;;;20.47;57.10
73455;BME280;61690;51.824;6.306;2022-08-21T08:23:06;101578.84;;;20.51;57.02
73455;BME280;61690;51.824;6.306;2022-08-21T08:25:32;101580.34;;;20.55;56.82
73455;BME280;61690;51.824;6.306;2022-08-21T08:27:57;101579.06;;;20.62;56.86
73455;BME280;61690;51.824;6.306;2022-08-21T08:30:22;101581.13;;;20.71;56.86
73455;BME280;61690;51.824;6.306;2022-08-21T08:32:49;101582.06;;;20.70;56.25
73455;BME280;61690;51.824;6.306;2022-08-21T08:35:15;101583.03;;;20.69;56.31
73455;BME280;61690;51.824;6.306;2022-08-21T08:37:40;101575.63;;;20.74;56.28
73455;BME280;61690;51.824;6.306;2022-08-21T08:42:55;101571.56;;;20.83;56.30
73455;BME280;61690;51.824;6.306;2022-08-21T08:45:21;101577.59;;;20.85;56.23
73455;BME280;61690;51.824;6.306;2022-08-21T08:47:53;101572.00;;;20.90;56.55
73455;BME280;61690;51.824;6.306;2022-08-21T08:50:46;101570.00;;;20.93;56.33
73455;BME280;61690;51.824;6.306;2022-08-21T08:53:31;101574.06;;;20.99;56.09
73455;BME280;61690;51.824;6.306;2022-08-21T08:55:57;101569.31;;;21.04;55.92
73455;BME280;61690;51.824;6.306;2022-08-21T08:58:31;101570.81;;;21.08;55.86
73455;BME280;61690;51.824;6.306;2022-08-21T09:00:57;101574.94;;;21.12;55.82
73455;BME280;61690;51.824;6.306;2022-08-21T09:03:23;101567.75;;;21.14;55.43
73455;BME280;61690;51.824;6.306;2022-08-21T09:08:34;101562.06;;;21.21;55.54
73455;BME280;61690;51.824;6.306;2022-08-21T09:11:28;101560.16;;;21.23;55.42
73455;BME280;61690;51.824;6.306;2022-08-21T09:16:53;101554.66;;;21.26;55.36
73455;BME280;61690;51.824;6.306;2022-08-21T09:22:48;101552.56;;;21.31;55.09
73455;BME280;61690;51.824;6.306;2022-08-21T09:25:23;101557.66;;;21.34;55.09
73455;BME280;61690;51.824;6.306;2022-08-21T09:27:50;101560.09;;;21.37;54.93
73455;BME280;61690;51.824;6.306;2022-08-21T09:30:16;101551.31;;;21.37;54.88
73455;BME280;61690;51.824;6.306;2022-08-21T09:32:43;101548.78;;;21.35;54.84
73455;BME280;61690;51.824;6.306;2022-08-21T09:35:17;101550.44;;;21.36;54.85
73455;BME280;61690;51.824;6.306;2022-08-21T09:40:40;101550.84;;;21.44;54.71
73455;BME280;61690;51.824;6.306;2022-08-21T09:45:43;101555.81;;;21.49;54.51
73455;BME280;61690;51.824;6.306;2022-08-21T09:48:15;101553.06;;;21.50;54.48
73455;BME280;61690;51.824;6.306;2022-08-21T09:50:44;101550.41;;;21.50;54.56
73455;BME280;61690;51.824;6.306;2022-08-21T09:53:29;101547.34;;;21.57;54.36
73455;BME280;61690;51.824;6.306;2022-08-21T09:56:18;101543.97;;;21.54;54.30
73455;BME280;61690;51.824;6.306;2022-08-21T09:59:34;101548.31;;;21.56;54.29
73455;BME280;61690;51.824;6.306;2022-08-21T10:05:16;101548.94;;;21.59;54.17
73455;BME280;61690;51.824;6.306;2022-08-21T10:07:54;101551.56;;;21.59;54.24
73455;BME280;61690;51.824;6.306;2022-08-21T10:10:30;101545.44;;;21.59;54.24
73455;BME280;61690;51.824;6.306;2022-08-21T10:13:34;101555.00;;;21.61;54.08
73455;BME280;61690;51.824;6.306;2022-08-21T10:16:40;101549.56;;;21.63;54.06
73455;BME280;61690;51.824;6.306;2022-08-21T10:25:18;101541.44;;;21.66;53.75
73455;BME280;61690;51.824;6.306;2022-08-21T10:30:14;101536.97;;;21.66;53.91
73455;BME280;61690;51.824;6.306;2022-08-21T10:37:52;101549.03;;;21.70;54.13
73455;BME280;61690;51.824;6.306;2022-08-21T10:40:25;101542.91;;;21.70;54.01
73455;BME280;61690;51.824;6.306;2022-08-21T10:48:37;101547.03;;;21.74;53.90
73455;BME280;61690;51.824;6.306;2022-08-21T10:51:16;101541.44;;;21.79;53.80
73455;BME280;61690;51.824;6.306;2022-08-21T10:54:05;101543.22;;;21.78;53.55
73455;BME280;61690;51.824;6.306;2022-08-21T10:56:36;101548.41;;;21.80;53.78
73455;BME280;61690;51.824;6.306;2022-08-21T11:04:40;101545.47;;;21.84;53.73
73455;BME280;61690;51.824;6.306;2022-08-21T11:09:50;101536.47;;;21.87;53.34
73455;BME280;61690;51.824;6.306;2022-08-21T11:12:40;101545.97;;;21.89;53.58
73455;BME280;61690;51.824;6.306;2022-08-21T11:15:19;101546.72;;;21.91;53.57
73455;BME280;61690;51.824;6.306;2022-08-21T11:23:39;101546.31;;;21.98;53.51
73455;BME280;61690;51.824;6.306;2022-08-21T11:26:30;101543.13;;;22.05;53.05
73455;BME280;61690;51.824;6.306;2022-08-21T11:29:28;101539.94;;;22.13;52.84
73455;BME280;61690;51.824;6.306;2022-08-21T11:32:24;101542.81;;;22.10;52.94
73455;BME280;61690;51.824;6.306;2022-08-21T11:35:32;101537.16;;;22.15;52.88
73455;BME280;61690;51.824;6.306;2022-08-21T11:38:27;101541.81;;;22.11;53.14
73455;BME280;61690;51.824;6.306;2022-08-21T11:43:40;101534.66;;;22.13;52.95
73455;BME280;61690;51.824;6.306;2022-08-21T11:46:38;101531.66;;;22.18;52.85
73455;BME280;61690;51.824;6.306;2022-08-21T11:58:28;101524.34;;;22.21;52.86
73455;BME280;61690;51.824;6.306;2022-08-21T12:03:20;101512.38;;;22.16;53.07
73455;BME280;61690;51.824;6.306;2022-08-21T12:06:11;101507.91;;;22.16;53.24
73455;BME280;61690;51.824;6.306;2022-08-21T12:08:42;101513.84;;;22.20;53.06
73455;BME280;61690;51.824;6.306;2022-08-21T12:14:13;101519.25;;;22.18;53.29
73455;BME280;61690;51.824;6.306;2022-08-21T12:16:44;101518.31;;;22.19;53.14
73455;BME280;61690;51.824;6.306;2022-08-21T12:24:50;101519.97;;;22.20;53.33
73455;BME280;61690;51.824;6.306;2022-08-21T12:27:30;101527.94;;;22.20;53.14
73455;BME280;61690;51.824;6.306;2022-08-21T12:33:02;101517.97;;;22.24;52.97
73455;BME280;61690;51.824;6.306;2022-08-21T12:35:35;101515.31;;;22.24;53.25
73455;BME280;61690;51.824;6.306;2022-08-21T12:38:09;101521.47;;;22.24;53.08
73455;BME280;61690;51.824;6.306;2022-08-21T12:40:43;101523.28;;;22.24;53.13
73455;BME280;61690;51.824;6.306;2022-08-21T12:43:19;101521.47;;;22.24;53.09
73455;BME280;61690;51.824;6.306;2022-08-21T12:45:48;101524.09;;;22.24;53.10
73455;BME280;61690;51.824;6.306;2022-08-21T12:50:50;101525.75;;;22.27;53.17
73455;BME280;61690;51.824;6.306;2022-08-21T12:56:11;101526.59;;;22.27;53.23
73455;BME280;61690;51.824;6.306;2022-08-21T12:58:40;101528.28;;;22.28;53.13
73455;BME280;61690;51.824;6.306;2022-08-21T13:03:41;101521.19;;;22.29;53.11
73455;BME280;61690;51.824;6.306;2022-08-21T13:06:14;101518.63;;;22.27;53.15
73455;BME280;61690;51.824;6.306;2022-08-21T13:08:42;101515.53;;;22.34;53.01
73455;BME280;61690;51.824;6.306;2022-08-21T13:11:10;101518.91;;;22.36;52.93
73455;BME280;61690;51.824;6.306;2022-08-21T13:13:41;101510.22;;;22.34;53.13
73455;BME280;61690;51.824;6.306;2022-08-21T13:16:07;101511.22;;;22.33;52.87
73455;BME280;61690;51.824;6.306;2022-08-21T13:21:43;101506.31;;;22.39;52.85
73455;BME280;61690;51.824;6.306;2022-08-21T13:26:40;101511.72;;;22.38;53.15
73455;BME280;61690;51.824;6.306;2022-08-21T13:29:10;101509.56;;;22.43;52.71
73455;BME280;61690;51.824;6.306;2022-08-21T13:31:37;101506.31;;;22.39;52.85
73455;BME280;61690;51.824;6.306;2022-08-21T13:34:04;101508.09;;;22.39;52.95
73455;BME280;61690;51.824;6.306;2022-08-21T13:36:34;101505.13;;;22.43;52.68
73455;BME280;61690;51.824;6.306;2022-08-21T13:39:03;101507.75;;;22.43;52.72
73455;BME280;61690;51.824;6.306;2022-08-21T13:41:33;101512.22;;;22.43;53.01
73455;BME280;61690;51.824;6.306;2022-08-21T13:44:21;101507.91;;;22.42;53.02
73455;BME280;61690;51.824;6.306;2022-08-21T13:46:51;101506.81;;;22.44;53.07
73455;BME280;61690;51.824;6.306;2022-08-21T13:49:19;101504.56;;;22.51;52.61
73455;BME280;61690;51.824;6.306;2022-08-21T13:51:46;101507.22;;;22.51;52.55
73455;BME280;61690;51.824;6.306;2022-08-21T13:54:26;101502.16;;;22.48;52.62
73455;BME280;61690;51.824;6.306;2022-08-21T13:56:53;101498.53;;;22.49;52.75
73455;BME280;61690;51.824;6.306;2022-08-21T13:59:53;101494.09;;;22.49;52.78
73455;BME280;61690;51.824;6.306;2022-08-21T14:02:38;101498.31;;;22.52;52.65
73455;BME280;61690;51.824;6.306;2022-08-21T14:05:05;101490.16;;;22.55;52.62
73455;BME280;61690;51.824;6.306;2022-08-21T14:07:36;101492.91;;;22.54;52.65
73455;BME280;61690;51.824;6.306;2022-08-21T14:10:16;101492.03;;;22.53;52.66
73455;BME280;61690;51.824;6.306;2022-08-21T14:12:53;101481.94;;;22.58;52.48
73455;BME280;61690;51.824;6.306;2022-08-21T14:15:23;101484.59;;;22.58;52.19
73455;BME280;61690;51.824;6.306;2022-08-21T14:17:50;101487.50;;;22.55;52.57
73455;BME280;61690;51.824;6.306;2022-08-21T14:20:31;101481.13;;;22.58;52.28
73455;BME280;61690;51.824;6.306;2022-08-21T14:22:57;101482.06;;;22.57;52.37
73455;BME280;61690;51.824;6.306;2022-08-21T14:30:39;101480.03;;;22.60;52.34
73455;BME280;61690;51.824;6.306;2022-08-21T14:33:09;101480.75;;;22.62;52.31
73455;BME280;61690;51.824;6.306;2022-08-21T14:35:35;101478.13;;;22.62;52.38
73455;BME280;61690;51.824;6.306;2022-08-21T14:38:01;101478.84;;;22.64;52.37
73455;BME280;61690;51.824;6.306;2022-08-21T14:40:29;101474.50;;;22.63;52.30